sensor_id;sensor_type;location;lat;lon;timestamp;P1;durP1;ratioP1;P2;durP2;ratioP2
34900;SDS011;21112;51.976;5.660;2022-12-18T00:04:51;36.25;;;11.13;;
34900;SDS011;21112;51.976;5.660;2022-12-18T00:07:18;32.47;;;11.30;;
34900;SDS011;21112;51.976;5.660;2022-12-18T00:09:45;31.63;;;11.77;;
34900;SDS011;21112;51.976;5.660;2022-12-18T00:12:11;35.42;;;11.65;;
34900;SDS011;21112;51.976;5.660;2022-12-18T00:14:38;30.90;;;10.52;;
34900;SDS011;21112;51.976;5.660;2022-12-18T00:17:04;30.60;;;11.63;;
34900;SDS011;21112;51.976;5.660;2022-12-18T00:19:32;33.65;;;11.68;;
34900;SDS011;21112;51.976;5.660;2022-12-18T00:22:00;37.05;;;12.80;;
34900;SDS011;21112;51.976;5.660;2022-12-18T00:24:26;37.17;;;11.40;;
34900;SDS011;21112;51.976;5.660;2022-12-18T00:26:53;39.40;;;11.85;;
34900;SDS011;21112;51.976;5.660;2022-12-18T00:29:19;38.55;;;11.38;;
34900;SDS011;21112;51.976;5.660;2022-12-18T00:31:46;35.28;;;11.55;;
34900;SDS011;21112;51.976;5.660;2022-12-18T00:34:12;36.60;;;12.23;;
34900;SDS011;21112;51.976;5.660;2022-12-18T00:36:39;39.20;;;12.10;;
34900;SDS011;21112;51.976;5.660;2022-12-18T00:39:09;35.15;;;11.52;;
34900;SDS011;21112;51.976;5.660;2022-12-18T00:41:36;26.27;;;9.35;;
34900;SDS011;21112;51.976;5.660;2022-12-18T00:44:21;36.55;;;11.52;;
34900;SDS011;21112;51.976;5.660;2022-12-18T00:46:47;33.80;;;11.65;;
34900;SDS011;21112;51.976;5.660;2022-12-18T00:49:15;35.70;;;11.73;;
34900;SDS011;21112;51.976;5.660;2022-12-18T00:51:41;34.22;;;11.60;;
34900;SDS011;21112;51.976;5.660;2022-12-18T00:54:09;34.47;;;10.90;;
34900;SDS011;21112;51.976;5.660;2022-12-18T00:56:36;38.33;;;13.18;;
34900;SDS011;21112;51.976;5.660;2022-12-18T00:59:03;31.92;;;11.30;;
34900;SDS011;21112;51.976;5.660;2022-12-18T01:01:33;38.47;;;12.32;;
34900;SDS011;21112;51.976;5.660;2022-12-18T01:04:00;32.55;;;11.60;;
34900;SDS011;21112;51.976;5.660;2022-12-18T01:06:26;30.77;;;10.70;;
34900;SDS011;21112;51.976;5.660;2022-12-18T01:08:53;32.55;;;11.60;;
34900;SDS011;21112;51.976;5.660;2022-12-18T01:11:21;27.95;;;11.20;;
34900;SDS011;21112;51.976;5.660;2022-12-18T01:13:48;27.42;;;10.40;;
34900;SDS011;21112;51.976;5.660;2022-12-18T01:16:15;31.25;;;11.35;;
34900;SDS011;21112;51.976;5.660;2022-12-18T01:18:43;31.97;;;11.37;;
34900;SDS011;21112;51.976;5.660;2022-12-18T01:21:10;31.60;;;11.95;;
34900;SDS011;21112;51.976;5.660;2022-12-18T01:23:37;34.10;;;12.02;;
34900;SDS011;21112;51.976;5.660;2022-12-18T01:26:05;31.17;;;11.25;;
34900;SDS011;21112;51.976;5.660;2022-12-18T01:28:33;30.93;;;10.57;;
34900;SDS011;21112;51.976;5.660;2022-12-18T01:31:09;32.75;;;11.65;;
34900;SDS011;21112;51.976;5.660;2022-12-18T01:33:36;31.67;;;10.73;;
34900;SDS011;21112;51.976;5.660;2022-12-18T01:36:02;28.50;;;11.15;;
34900;SDS011;21112;51.976;5.660;2022-12-18T01:38:29;34.58;;;11.25;;
34900;SDS011;21112;51.976;5.660;2022-12-18T01:40:56;32.90;;;11.20;;
34900;SDS011;21112;51.976;5.660;2022-12-18T01:46:06;26.70;;;10.40;;
34900;SDS011;21112;51.976;5.660;2022-12-18T01:48:32;31.73;;;10.93;;
34900;SDS011;21112;51.976;5.660;2022-12-18T01:50:59;28.33;;;11.13;;
34900;SDS011;21112;51.976;5.660;2022-12-18T01:53:26;33.78;;;10.52;;
34900;SDS011;21112;51.976;5.660;2022-12-18T01:55:53;27.85;;;10.65;;
34900;SDS011;21112;51.976;5.660;2022-12-18T01:58:20;29.95;;;10.68;;
34900;SDS011;21112;51.976;5.660;2022-12-18T02:00:48;30.60;;;10.30;;
34900;SDS011;21112;51.976;5.660;2022-12-18T02:03:16;32.45;;;11.18;;
34900;SDS011;21112;51.976;5.660;2022-12-18T02:05:44;26.77;;;10.32;;
34900;SDS011;21112;51.976;5.660;2022-12-18T02:08:13;31.90;;;10.45;;
34900;SDS011;21112;51.976;5.660;2022-12-18T02:10:45;31.88;;;10.27;;
34900;SDS011;21112;51.976;5.660;2022-12-18T02:13:14;32.35;;;10.50;;
34900;SDS011;21112;51.976;5.660;2022-12-18T02:15:47;28.20;;;10.30;;
34900;SDS011;21112;51.976;5.660;2022-12-18T02:18:18;26.25;;;10.05;;
34900;SDS011;21112;51.976;5.660;2022-12-18T02:20:46;30.52;;;9.90;;
34900;SDS011;21112;51.976;5.660;2022-12-18T02:23:17;28.98;;;9.95;;
34900;SDS011;21112;51.976;5.660;2022-12-18T02:26:02;32.90;;;10.50;;
34900;SDS011;21112;51.976;5.660;2022-12-18T02:28:33;27.20;;;10.07;;
34900;SDS011;21112;51.976;5.660;2022-12-18T02:33:27;24.13;;;8.43;;
34900;SDS011;21112;51.976;5.660;2022-12-18T02:35:55;28.70;;;10.07;;
34900;SDS011;21112;51.976;5.660;2022-12-18T02:38:22;25.13;;;9.27;;
34900;SDS011;21112;51.976;5.660;2022-12-18T02:40:49;24.48;;;9.57;;
34900;SDS011;21112;51.976;5.660;2022-12-18T02:43:17;24.48;;;9.27;;
34900;SDS011;21112;51.976;5.660;2022-12-18T02:45:47;26.60;;;9.87;;
34900;SDS011;21112;51.976;5.660;2022-12-18T02:48:14;22.58;;;8.00;;
34900;SDS011;21112;51.976;5.660;2022-12-18T02:55:48;29.13;;;8.85;;
34900;SDS011;21112;51.976;5.660;2022-12-18T02:58:20;26.02;;;9.52;;
34900;SDS011;21112;51.976;5.660;2022-12-18T03:00:53;27.13;;;8.88;;
34900;SDS011;21112;51.976;5.660;2022-12-18T03:03:25;23.55;;;8.82;;
34900;SDS011;21112;51.976;5.660;2022-12-18T03:05:56;29.20;;;8.95;;
34900;SDS011;21112;51.976;5.660;2022-12-18T03:08:24;23.17;;;8.82;;
34900;SDS011;21112;51.976;5.660;2022-12-18T03:10:53;25.25;;;9.07;;
34900;SDS011;21112;51.976;5.660;2022-12-18T03:13:23;20.17;;;8.65;;
34900;SDS011;21112;51.976;5.660;2022-12-18T03:15:51;26.80;;;9.38;;
34900;SDS011;21112;51.976;5.660;2022-12-18T03:18:19;25.03;;;8.47;;
34900;SDS011;21112;51.976;5.660;2022-12-18T03:20:48;23.90;;;8.65;;
34900;SDS011;21112;51.976;5.660;2022-12-18T03:23:15;21.65;;;8.55;;
34900;SDS011;21112;51.976;5.660;2022-12-18T03:25:44;28.70;;;9.20;;
34900;SDS011;21112;51.976;5.660;2022-12-18T03:28:12;24.60;;;9.07;;
34900;SDS011;21112;51.976;5.660;2022-12-18T03:30:41;19.35;;;7.28;;
34900;SDS011;21112;51.976;5.660;2022-12-18T03:33:08;20.58;;;8.13;;
34900;SDS011;21112;51.976;5.660;2022-12-18T03:35:37;23.83;;;8.45;;
34900;SDS011;21112;51.976;5.660;2022-12-18T03:38:05;20.15;;;7.85;;
34900;SDS011;21112;51.976;5.660;2022-12-18T03:40:34;22.65;;;8.02;;
34900;SDS011;21112;51.976;5.660;2022-12-18T03:43:02;18.80;;;7.47;;
34900;SDS011;21112;51.976;5.660;2022-12-18T03:45:34;19.10;;;7.63;;
34900;SDS011;21112;51.976;5.660;2022-12-18T03:48:04;23.70;;;8.40;;
34900;SDS011;21112;51.976;5.660;2022-12-18T03:50:36;25.77;;;8.13;;
34900;SDS011;21112;51.976;5.660;2022-12-18T03:53:06;20.90;;;7.63;;
34900;SDS011;21112;51.976;5.660;2022-12-18T03:55:35;22.30;;;7.18;;
34900;SDS011;21112;51.976;5.660;2022-12-18T03:58:03;20.50;;;7.50;;
34900;SDS011;21112;51.976;5.660;2022-12-18T04:00:30;22.10;;;6.95;;
34900;SDS011;21112;51.976;5.660;2022-12-18T04:02:57;20.30;;;7.03;;
34900;SDS011;21112;51.976;5.660;2022-12-18T04:05:27;23.65;;;7.68;;
34900;SDS011;21112;51.976;5.660;2022-12-18T04:07:55;22.23;;;7.93;;
34900;SDS011;21112;51.976;5.660;2022-12-18T04:10:22;25.38;;;8.05;;
34900;SDS011;21112;51.976;5.660;2022-12-18T04:12:48;18.20;;;7.28;;
34900;SDS011;21112;51.976;5.660;2022-12-18T04:15:15;22.85;;;7.60;;
34900;SDS011;21112;51.976;5.660;2022-12-18T04:17:43;18.80;;;6.70;;
34900;SDS011;21112;51.976;5.660;2022-12-18T04:20:12;20.52;;;7.55;;
34900;SDS011;21112;51.976;5.660;2022-12-18T04:22:40;22.70;;;7.15;;
34900;SDS011;21112;51.976;5.660;2022-12-18T04:25:07;18.00;;;6.43;;
34900;SDS011;21112;51.976;5.660;2022-12-18T04:27:34;21.58;;;7.13;;
34900;SDS011;21112;51.976;5.660;2022-12-18T04:30:01;24.65;;;7.45;;
34900;SDS011;21112;51.976;5.660;2022-12-18T04:32:27;19.50;;;6.95;;
34900;SDS011;21112;51.976;5.660;2022-12-18T04:34:54;21.63;;;6.95;;
34900;SDS011;21112;51.976;5.660;2022-12-18T04:37:20;18.52;;;7.00;;
34900;SDS011;21112;51.976;5.660;2022-12-18T04:39:48;16.02;;;7.05;;
34900;SDS011;21112;51.976;5.660;2022-12-18T04:42:14;21.40;;;7.18;;
34900;SDS011;21112;51.976;5.660;2022-12-18T04:44:41;20.38;;;7.38;;
34900;SDS011;21112;51.976;5.660;2022-12-18T04:47:07;16.05;;;6.22;;
34900;SDS011;21112;51.976;5.660;2022-12-18T04:49:34;16.08;;;6.22;;
34900;SDS011;21112;51.976;5.660;2022-12-18T04:52:01;19.98;;;6.95;;
34900;SDS011;21112;51.976;5.660;2022-12-18T04:54:27;19.92;;;7.35;;
34900;SDS011;21112;51.976;5.660;2022-12-18T04:56:55;19.42;;;7.13;;
34900;SDS011;21112;51.976;5.660;2022-12-18T04:59:22;16.02;;;6.35;;
34900;SDS011;21112;51.976;5.660;2022-12-18T05:01:48;17.00;;;6.68;;
34900;SDS011;21112;51.976;5.660;2022-12-18T05:04:15;18.35;;;6.07;;
34900;SDS011;21112;51.976;5.660;2022-12-18T05:06:41;19.55;;;6.72;;
34900;SDS011;21112;51.976;5.660;2022-12-18T05:09:08;17.48;;;6.35;;
34900;SDS011;21112;51.976;5.660;2022-12-18T05:11:34;18.23;;;6.05;;
34900;SDS011;21112;51.976;5.660;2022-12-18T05:14:02;19.80;;;6.70;;
34900;SDS011;21112;51.976;5.660;2022-12-18T05:16:28;14.63;;;5.80;;
34900;SDS011;21112;51.976;5.660;2022-12-18T05:18:55;16.00;;;6.40;;
34900;SDS011;21112;51.976;5.660;2022-12-18T05:21:22;16.55;;;6.05;;
34900;SDS011;21112;51.976;5.660;2022-12-18T05:23:48;13.52;;;5.85;;
34900;SDS011;21112;51.976;5.660;2022-12-18T05:26:15;17.15;;;6.22;;
34900;SDS011;21112;51.976;5.660;2022-12-18T05:28:42;18.83;;;6.23;;
34900;SDS011;21112;51.976;5.660;2022-12-18T05:31:10;16.85;;;6.45;;
34900;SDS011;21112;51.976;5.660;2022-12-18T05:33:37;18.58;;;6.50;;
34900;SDS011;21112;51.976;5.660;2022-12-18T05:36:04;14.23;;;5.68;;
34900;SDS011;21112;51.976;5.660;2022-12-18T05:38:31;15.82;;;5.50;;
34900;SDS011;21112;51.976;5.660;2022-12-18T05:40:58;12.75;;;5.68;;
34900;SDS011;21112;51.976;5.660;2022-12-18T05:43:25;14.40;;;5.88;;
34900;SDS011;21112;51.976;5.660;2022-12-18T05:45:52;17.42;;;7.07;;
34900;SDS011;21112;51.976;5.660;2022-12-18T05:48:20;14.95;;;5.60;;
34900;SDS011;21112;51.976;5.660;2022-12-18T05:50:48;22.20;;;6.57;;
34900;SDS011;21112;51.976;5.660;2022-12-18T05:53:15;15.70;;;6.03;;
34900;SDS011;21112;51.976;5.660;2022-12-18T05:55:43;14.63;;;6.18;;
34900;SDS011;21112;51.976;5.660;2022-12-18T05:58:10;16.92;;;6.07;;
34900;SDS011;21112;51.976;5.660;2022-12-18T06:00:38;15.57;;;6.00;;
34900;SDS011;21112;51.976;5.660;2022-12-18T06:05:35;15.75;;;5.28;;
34900;SDS011;21112;51.976;5.660;2022-12-18T06:08:02;12.45;;;5.60;;
34900;SDS011;21112;51.976;5.660;2022-12-18T06:10:28;14.57;;;5.43;;
34900;SDS011;21112;51.976;5.660;2022-12-18T06:12:55;15.48;;;5.72;;
34900;SDS011;21112;51.976;5.660;2022-12-18T06:15:21;16.10;;;5.45;;
34900;SDS011;21112;51.976;5.660;2022-12-18T06:17:48;17.02;;;6.35;;
34900;SDS011;21112;51.976;5.660;2022-12-18T06:20:14;15.25;;;5.47;;
34900;SDS011;21112;51.976;5.660;2022-12-18T06:22:42;16.02;;;5.53;;
34900;SDS011;21112;51.976;5.660;2022-12-18T06:25:09;15.63;;;6.03;;
34900;SDS011;21112;51.976;5.660;2022-12-18T06:27:35;12.15;;;5.40;;
34900;SDS011;21112;51.976;5.660;2022-12-18T06:30:02;15.52;;;5.55;;
34900;SDS011;21112;51.976;5.660;2022-12-18T06:32:29;14.85;;;5.65;;
34900;SDS011;21112;51.976;5.660;2022-12-18T06:34:55;16.55;;;6.30;;
34900;SDS011;21112;51.976;5.660;2022-12-18T06:37:22;15.63;;;6.05;;
34900;SDS011;21112;51.976;5.660;2022-12-18T06:39:52;16.92;;;5.50;;
34900;SDS011;21112;51.976;5.660;2022-12-18T06:42:19;15.93;;;5.68;;
34900;SDS011;21112;51.976;5.660;2022-12-18T06:44:45;16.73;;;5.57;;
34900;SDS011;21112;51.976;5.660;2022-12-18T06:47:12;17.23;;;5.80;;
34900;SDS011;21112;51.976;5.660;2022-12-18T06:49:38;11.95;;;5.10;;
34900;SDS011;21112;51.976;5.660;2022-12-18T06:52:05;13.85;;;5.55;;
34900;SDS011;21112;51.976;5.660;2022-12-18T06:54:31;13.60;;;5.20;;
34900;SDS011;21112;51.976;5.660;2022-12-18T06:56:59;12.90;;;5.10;;
34900;SDS011;21112;51.976;5.660;2022-12-18T06:59:26;14.02;;;5.20;;
34900;SDS011;21112;51.976;5.660;2022-12-18T07:01:53;11.15;;;5.03;;
34900;SDS011;21112;51.976;5.660;2022-12-18T07:04:19;15.23;;;5.40;;
34900;SDS011;21112;51.976;5.660;2022-12-18T07:06:45;12.00;;;4.85;;
34900;SDS011;21112;51.976;5.660;2022-12-18T07:09:12;14.85;;;5.20;;
34900;SDS011;21112;51.976;5.660;2022-12-18T07:11:39;20.17;;;5.90;;
34900;SDS011;21112;51.976;5.660;2022-12-18T07:14:06;15.77;;;5.63;;
34900;SDS011;21112;51.976;5.660;2022-12-18T07:16:33;15.00;;;5.40;;
34900;SDS011;21112;51.976;5.660;2022-12-18T07:19:00;14.02;;;4.88;;
34900;SDS011;21112;51.976;5.660;2022-12-18T07:21:26;13.70;;;6.07;;
34900;SDS011;21112;51.976;5.660;2022-12-18T07:23:53;13.18;;;4.60;;
34900;SDS011;21112;51.976;5.660;2022-12-18T07:26:19;17.23;;;5.80;;
34900;SDS011;21112;51.976;5.660;2022-12-18T07:28:46;18.65;;;5.43;;
34900;SDS011;21112;51.976;5.660;2022-12-18T07:31:15;13.52;;;5.53;;
34900;SDS011;21112;51.976;5.660;2022-12-18T07:33:42;11.30;;;4.70;;
34900;SDS011;21112;51.976;5.660;2022-12-18T07:36:09;12.07;;;5.03;;
34900;SDS011;21112;51.976;5.660;2022-12-18T07:38:36;16.85;;;5.60;;
34900;SDS011;21112;51.976;5.660;2022-12-18T07:41:02;15.57;;;5.72;;
34900;SDS011;21112;51.976;5.660;2022-12-18T07:43:29;14.15;;;5.55;;
34900;SDS011;21112;51.976;5.660;2022-12-18T07:45:56;15.35;;;5.55;;
34900;SDS011;21112;51.976;5.660;2022-12-18T07:48:24;12.98;;;5.28;;
34900;SDS011;21112;51.976;5.660;2022-12-18T07:50:50;12.13;;;5.18;;
34900;SDS011;21112;51.976;5.660;2022-12-18T07:53:17;13.23;;;5.53;;
34900;SDS011;21112;51.976;5.660;2022-12-18T07:55:44;15.35;;;5.95;;
34900;SDS011;21112;51.976;5.660;2022-12-18T07:58:10;13.13;;;5.55;;
34900;SDS011;21112;51.976;5.660;2022-12-18T08:00:38;14.90;;;5.32;;
34900;SDS011;21112;51.976;5.660;2022-12-18T08:03:04;11.90;;;5.35;;
34900;SDS011;21112;51.976;5.660;2022-12-18T08:08:01;12.07;;;4.38;;
34900;SDS011;21112;51.976;5.660;2022-12-18T08:10:27;15.18;;;5.25;;
34900;SDS011;21112;51.976;5.660;2022-12-18T08:12:54;15.65;;;5.15;;
34900;SDS011;21112;51.976;5.660;2022-12-18T08:15:21;14.80;;;5.28;;
34900;SDS011;21112;51.976;5.660;2022-12-18T08:17:47;12.93;;;5.47;;
34900;SDS011;21112;51.976;5.660;2022-12-18T08:20:14;14.10;;;5.47;;
34900;SDS011;21112;51.976;5.660;2022-12-18T08:22:41;16.30;;;5.72;;
34900;SDS011;21112;51.976;5.660;2022-12-18T08:25:12;20.83;;;5.40;;
34900;SDS011;21112;51.976;5.660;2022-12-18T08:27:39;14.75;;;5.65;;
34900;SDS011;21112;51.976;5.660;2022-12-18T08:30:06;14.05;;;5.07;;
34900;SDS011;21112;51.976;5.660;2022-12-18T08:32:33;15.35;;;6.07;;
34900;SDS011;21112;51.976;5.660;2022-12-18T08:35:00;17.63;;;5.75;;
34900;SDS011;21112;51.976;5.660;2022-12-18T08:37:26;12.63;;;5.65;;
34900;SDS011;21112;51.976;5.660;2022-12-18T08:39:53;13.57;;;5.15;;
34900;SDS011;21112;51.976;5.660;2022-12-18T08:42:20;12.88;;;5.07;;
34900;SDS011;21112;51.976;5.660;2022-12-18T08:45:04;17.15;;;5.20;;
34900;SDS011;21112;51.976;5.660;2022-12-18T08:47:31;12.77;;;4.80;;
34900;SDS011;21112;51.976;5.660;2022-12-18T08:49:58;11.88;;;5.00;;
34900;SDS011;21112;51.976;5.660;2022-12-18T08:52:24;13.73;;;4.97;;
34900;SDS011;21112;51.976;5.660;2022-12-18T08:54:53;12.60;;;5.28;;
34900;SDS011;21112;51.976;5.660;2022-12-18T08:57:21;15.93;;;5.40;;
34900;SDS011;21112;51.976;5.660;2022-12-18T08:59:47;15.63;;;4.93;;
34900;SDS011;21112;51.976;5.660;2022-12-18T09:02:15;11.90;;;4.72;;
34900;SDS011;21112;51.976;5.660;2022-12-18T09:04:43;11.75;;;5.00;;
34900;SDS011;21112;51.976;5.660;2022-12-18T09:07:12;16.42;;;4.97;;
34900;SDS011;21112;51.976;5.660;2022-12-18T09:09:39;13.45;;;5.63;;
34900;SDS011;21112;51.976;5.660;2022-12-18T09:12:06;14.88;;;4.70;;
34900;SDS011;21112;51.976;5.660;2022-12-18T09:14:33;12.38;;;5.18;;
34900;SDS011;21112;51.976;5.660;2022-12-18T09:17:00;13.60;;;4.82;;
34900;SDS011;21112;51.976;5.660;2022-12-18T09:19:27;13.35;;;5.03;;
34900;SDS011;21112;51.976;5.660;2022-12-18T09:24:22;12.95;;;4.72;;
34900;SDS011;21112;51.976;5.660;2022-12-18T09:26:54;13.02;;;4.88;;
34900;SDS011;21112;51.976;5.660;2022-12-18T09:29:20;13.07;;;4.60;;
34900;SDS011;21112;51.976;5.660;2022-12-18T09:31:50;9.85;;;4.70;;
34900;SDS011;21112;51.976;5.660;2022-12-18T09:34:16;12.77;;;4.75;;
34900;SDS011;21112;51.976;5.660;2022-12-18T09:36:43;12.05;;;4.90;;
34900;SDS011;21112;51.976;5.660;2022-12-18T09:39:10;16.40;;;5.20;;
34900;SDS011;21112;51.976;5.660;2022-12-18T09:41:39;12.27;;;4.43;;
34900;SDS011;21112;51.976;5.660;2022-12-18T09:44:11;12.18;;;4.90;;
34900;SDS011;21112;51.976;5.660;2022-12-18T09:46:40;11.75;;;4.82;;
34900;SDS011;21112;51.976;5.660;2022-12-18T09:49:12;10.57;;;4.00;;
34900;SDS011;21112;51.976;5.660;2022-12-18T09:51:40;10.77;;;4.57;;
34900;SDS011;21112;51.976;5.660;2022-12-18T09:54:11;9.45;;;4.25;;
34900;SDS011;21112;51.976;5.660;2022-12-18T09:56:39;9.90;;;3.97;;
34900;SDS011;21112;51.976;5.660;2022-12-18T09:59:08;11.57;;;4.28;;
34900;SDS011;21112;51.976;5.660;2022-12-18T10:01:39;12.68;;;4.43;;
34900;SDS011;21112;51.976;5.660;2022-12-18T10:04:10;13.32;;;4.38;;
34900;SDS011;21112;51.976;5.660;2022-12-18T10:06:38;13.98;;;5.03;;
34900;SDS011;21112;51.976;5.660;2022-12-18T10:09:09;13.20;;;4.80;;
34900;SDS011;21112;51.976;5.660;2022-12-18T10:11:40;15.63;;;4.82;;
34900;SDS011;21112;51.976;5.660;2022-12-18T10:14:11;11.50;;;4.55;;
34900;SDS011;21112;51.976;5.660;2022-12-18T10:16:43;14.32;;;4.63;;
34900;SDS011;21112;51.976;5.660;2022-12-18T10:19:20;12.25;;;4.60;;
34900;SDS011;21112;51.976;5.660;2022-12-18T10:21:51;13.93;;;4.90;;
34900;SDS011;21112;51.976;5.660;2022-12-18T10:24:21;14.45;;;4.70;;
34900;SDS011;21112;51.976;5.660;2022-12-18T10:26:52;11.13;;;4.28;;
34900;SDS011;21112;51.976;5.660;2022-12-18T10:29:22;11.80;;;4.55;;
34900;SDS011;21112;51.976;5.660;2022-12-18T10:31:48;9.52;;;4.30;;
34900;SDS011;21112;51.976;5.660;2022-12-18T10:34:15;14.88;;;4.78;;
34900;SDS011;21112;51.976;5.660;2022-12-18T10:36:43;13.35;;;4.85;;
34900;SDS011;21112;51.976;5.660;2022-12-18T10:39:15;12.90;;;5.05;;
34900;SDS011;21112;51.976;5.660;2022-12-18T10:41:42;10.35;;;4.03;;
34900;SDS011;21112;51.976;5.660;2022-12-18T10:44:14;11.50;;;4.22;;
34900;SDS011;21112;51.976;5.660;2022-12-18T10:46:42;14.05;;;4.60;;
34900;SDS011;21112;51.976;5.660;2022-12-18T10:49:18;13.48;;;4.55;;
34900;SDS011;21112;51.976;5.660;2022-12-18T10:51:46;13.23;;;4.65;;
34900;SDS011;21112;51.976;5.660;2022-12-18T10:54:13;14.25;;;4.45;;
34900;SDS011;21112;51.976;5.660;2022-12-18T10:56:41;13.43;;;4.20;;
34900;SDS011;21112;51.976;5.660;2022-12-18T10:59:08;11.48;;;4.20;;
34900;SDS011;21112;51.976;5.660;2022-12-18T11:01:49;11.13;;;4.57;;
34900;SDS011;21112;51.976;5.660;2022-12-18T11:04:18;14.60;;;4.65;;
34900;SDS011;21112;51.976;5.660;2022-12-18T11:06:53;10.27;;;4.30;;
34900;SDS011;21112;51.976;5.660;2022-12-18T11:09:21;16.50;;;4.65;;
34900;SDS011;21112;51.976;5.660;2022-12-18T11:11:48;11.27;;;4.57;;
34900;SDS011;21112;51.976;5.660;2022-12-18T11:14:18;12.93;;;4.40;;
34900;SDS011;21112;51.976;5.660;2022-12-18T11:16:47;10.07;;;4.00;;
34900;SDS011;21112;51.976;5.660;2022-12-18T11:19:20;12.27;;;4.53;;
34900;SDS011;21112;51.976;5.660;2022-12-18T11:21:51;12.80;;;5.05;;
34900;SDS011;21112;51.976;5.660;2022-12-18T11:24:29;13.68;;;5.40;;
34900;SDS011;21112;51.976;5.660;2022-12-18T11:26:57;14.43;;;4.57;;
34900;SDS011;21112;51.976;5.660;2022-12-18T11:29:24;11.40;;;4.37;;
34900;SDS011;21112;51.976;5.660;2022-12-18T11:31:57;10.13;;;4.15;;
34900;SDS011;21112;51.976;5.660;2022-12-18T11:34:39;13.50;;;4.63;;
34900;SDS011;21112;51.976;5.660;2022-12-18T11:37:07;13.05;;;4.45;;
34900;SDS011;21112;51.976;5.660;2022-12-18T11:39:36;10.43;;;4.82;;
34900;SDS011;21112;51.976;5.660;2022-12-18T11:42:05;15.35;;;4.57;;
34900;SDS011;21112;51.976;5.660;2022-12-18T11:44:57;14.10;;;4.35;;
34900;SDS011;21112;51.976;5.660;2022-12-18T11:47:43;12.68;;;4.22;;
34900;SDS011;21112;51.976;5.660;2022-12-18T11:50:33;13.52;;;4.50;;
34900;SDS011;21112;51.976;5.660;2022-12-18T11:53:17;10.90;;;4.10;;
34900;SDS011;21112;51.976;5.660;2022-12-18T11:55:53;12.43;;;4.32;;
34900;SDS011;21112;51.976;5.660;2022-12-18T11:58:29;10.75;;;4.07;;
34900;SDS011;21112;51.976;5.660;2022-12-18T12:01:02;11.82;;;4.97;;
34900;SDS011;21112;51.976;5.660;2022-12-18T12:06:55;10.48;;;3.95;;
34900;SDS011;21112;51.976;5.660;2022-12-18T12:09:49;10.63;;;3.85;;
34900;SDS011;21112;51.976;5.660;2022-12-18T12:12:23;12.25;;;3.88;;
34900;SDS011;21112;51.976;5.660;2022-12-18T12:14:54;11.32;;;4.18;;
34900;SDS011;21112;51.976;5.660;2022-12-18T12:17:36;13.00;;;4.97;;
34900;SDS011;21112;51.976;5.660;2022-12-18T12:20:10;10.38;;;4.07;;
34900;SDS011;21112;51.976;5.660;2022-12-18T12:22:57;11.80;;;4.20;;
34900;SDS011;21112;51.976;5.660;2022-12-18T12:25:36;10.65;;;4.25;;
34900;SDS011;21112;51.976;5.660;2022-12-18T12:28:12;12.40;;;4.47;;
34900;SDS011;21112;51.976;5.660;2022-12-18T12:30:42;12.98;;;4.63;;
34900;SDS011;21112;51.976;5.660;2022-12-18T12:33:16;12.60;;;4.72;;
34900;SDS011;21112;51.976;5.660;2022-12-18T12:35:55;12.35;;;4.85;;
34900;SDS011;21112;51.976;5.660;2022-12-18T12:38:35;12.88;;;4.43;;
34900;SDS011;21112;51.976;5.660;2022-12-18T12:44:13;9.23;;;3.63;;
34900;SDS011;21112;51.976;5.660;2022-12-18T12:49:19;13.52;;;5.10;;
34900;SDS011;21112;51.976;5.660;2022-12-18T12:51:50;11.32;;;4.60;;
34900;SDS011;21112;51.976;5.660;2022-12-18T12:54:34;10.55;;;4.20;;
34900;SDS011;21112;51.976;5.660;2022-12-18T12:57:18;14.38;;;4.72;;
34900;SDS011;21112;51.976;5.660;2022-12-18T12:59:56;11.43;;;4.32;;
34900;SDS011;21112;51.976;5.660;2022-12-18T13:02:28;10.00;;;4.57;;
34900;SDS011;21112;51.976;5.660;2022-12-18T13:05:09;12.77;;;5.15;;
34900;SDS011;21112;51.976;5.660;2022-12-18T13:07:54;11.18;;;4.57;;
34900;SDS011;21112;51.976;5.660;2022-12-18T13:10:52;9.43;;;4.15;;
34900;SDS011;21112;51.976;5.660;2022-12-18T13:13:49;14.90;;;5.10;;
34900;SDS011;21112;51.976;5.660;2022-12-18T13:16:16;13.55;;;4.32;;
34900;SDS011;21112;51.976;5.660;2022-12-18T13:18:48;14.00;;;5.22;;
34900;SDS011;21112;51.976;5.660;2022-12-18T13:21:21;13.75;;;4.85;;
34900;SDS011;21112;51.976;5.660;2022-12-18T13:23:49;14.75;;;5.13;;
34900;SDS011;21112;51.976;5.660;2022-12-18T13:26:28;15.70;;;4.88;;
34900;SDS011;21112;51.976;5.660;2022-12-18T13:28:55;16.08;;;5.32;;
34900;SDS011;21112;51.976;5.660;2022-12-18T13:34:14;14.57;;;5.30;;
34900;SDS011;21112;51.976;5.660;2022-12-18T13:36:41;17.88;;;5.00;;
34900;SDS011;21112;51.976;5.660;2022-12-18T13:39:09;20.55;;;5.57;;
34900;SDS011;21112;51.976;5.660;2022-12-18T13:41:36;11.63;;;4.90;;
34900;SDS011;21112;51.976;5.660;2022-12-18T13:44:12;14.32;;;5.88;;
34900;SDS011;21112;51.976;5.660;2022-12-18T13:46:47;11.27;;;4.55;;
34900;SDS011;21112;51.976;5.660;2022-12-18T13:49:30;14.90;;;5.32;;
34900;SDS011;21112;51.976;5.660;2022-12-18T13:52:15;14.98;;;5.55;;
34900;SDS011;21112;51.976;5.660;2022-12-18T13:54:42;13.10;;;5.35;;
34900;SDS011;21112;51.976;5.660;2022-12-18T13:57:24;11.82;;;4.95;;
34900;SDS011;21112;51.976;5.660;2022-12-18T13:59:51;16.75;;;5.47;;
34900;SDS011;21112;51.976;5.660;2022-12-18T14:02:21;13.77;;;5.50;;
34900;SDS011;21112;51.976;5.660;2022-12-18T14:04:50;13.93;;;4.73;;
34900;SDS011;21112;51.976;5.660;2022-12-18T14:07:17;11.23;;;4.80;;
34900;SDS011;21112;51.976;5.660;2022-12-18T14:09:45;11.73;;;5.22;;
34900;SDS011;21112;51.976;5.660;2022-12-18T14:14:58;14.52;;;4.43;;
34900;SDS011;21112;51.976;5.660;2022-12-18T14:17:24;12.85;;;5.60;;
34900;SDS011;21112;51.976;5.660;2022-12-18T14:19:52;13.88;;;5.25;;
34900;SDS011;21112;51.976;5.660;2022-12-18T14:22:20;14.32;;;5.60;;
34900;SDS011;21112;51.976;5.660;2022-12-18T14:24:58;23.35;;;5.30;;
34900;SDS011;21112;51.976;5.660;2022-12-18T14:27:36;14.32;;;5.00;;
34900;SDS011;21112;51.976;5.660;2022-12-18T14:30:23;16.17;;;5.40;;
34900;SDS011;21112;51.976;5.660;2022-12-18T14:33:05;14.15;;;4.95;;
34900;SDS011;21112;51.976;5.660;2022-12-18T14:35:37;15.05;;;5.22;;
34900;SDS011;21112;51.976;5.660;2022-12-18T14:38:11;16.33;;;5.85;;
34900;SDS011;21112;51.976;5.660;2022-12-18T14:40:46;15.45;;;5.78;;
34900;SDS011;21112;51.976;5.660;2022-12-18T14:43:27;13.90;;;5.82;;
34900;SDS011;21112;51.976;5.660;2022-12-18T14:46:24;19.20;;;6.22;;
34900;SDS011;21112;51.976;5.660;2022-12-18T14:48:59;14.93;;;5.60;;
34900;SDS011;21112;51.976;5.660;2022-12-18T14:57:34;13.15;;;5.30;;
34900;SDS011;21112;51.976;5.660;2022-12-18T15:00:15;14.90;;;5.35;;
34900;SDS011;21112;51.976;5.660;2022-12-18T15:03:12;14.68;;;5.95;;
34900;SDS011;21112;51.976;5.660;2022-12-18T15:05:44;13.38;;;5.72;;
34900;SDS011;21112;51.976;5.660;2022-12-18T15:10:54;18.70;;;7.03;;
34900;SDS011;21112;51.976;5.660;2022-12-18T15:13:31;17.55;;;5.93;;
34900;SDS011;21112;51.976;5.660;2022-12-18T15:16:25;14.57;;;6.00;;
34900;SDS011;21112;51.976;5.660;2022-12-18T15:18:58;18.52;;;7.22;;
34900;SDS011;21112;51.976;5.660;2022-12-18T15:21:31;14.18;;;5.45;;
34900;SDS011;21112;51.976;5.660;2022-12-18T15:28:58;17.83;;;5.63;;
34900;SDS011;21112;51.976;5.660;2022-12-18T15:31:36;16.35;;;6.80;;
34900;SDS011;21112;51.976;5.660;2022-12-18T15:34:10;18.13;;;5.65;;
34900;SDS011;21112;51.976;5.660;2022-12-18T15:36:41;21.08;;;5.35;;
34900;SDS011;21112;51.976;5.660;2022-12-18T15:39:10;15.63;;;5.82;;